createdAt,value
2019-01-31T00:01:27.703Z,3.08
2019-01-31T00:04:45.130Z,2.37
2019-01-31T00:07:53.350Z,2.60
2019-01-31T00:11:04.751Z,2.37
2019-01-31T00:14:06.404Z,2.42
2019-01-31T00:17:21.799Z,2.10
2019-01-31T00:20:01.594Z,2.47
2019-01-31T00:23:06.953Z,2.75
2019-01-31T00:26:08.064Z,2.67
2019-01-31T00:28:57.189Z,2.40
2019-01-31T00:32:06.138Z,2.37
2019-01-31T00:35:11.231Z,2.27
2019-01-31T00:38:13.436Z,2.00
2019-01-31T00:41:20.466Z,2.12
2019-01-31T00:44:32.567Z,2.80
2019-01-31T00:47:51.702Z,2.50
2019-01-31T00:51:17.149Z,2.55
2019-01-31T00:54:13.158Z,2.22
2019-01-31T00:57:05.051Z,2.43
2019-01-31T00:59:53.206Z,1.82
2019-01-31T01:03:06.777Z,2.00
2019-01-31T01:06:16.921Z,2.20
2019-01-31T01:09:39.383Z,1.82
2019-01-31T01:12:45.762Z,1.80
2019-01-31T01:15:58.022Z,1.90
2019-01-31T01:19:17.083Z,1.85
2019-01-31T01:22:11.365Z,2.20
2019-01-31T01:25:11.063Z,2.35
2019-01-31T01:28:18.355Z,2.00
2019-01-31T01:31:11.359Z,1.93
2019-01-31T01:34:12.621Z,2.35
2019-01-31T01:37:03.412Z,1.77
2019-01-31T01:40:32.345Z,1.95
2019-01-31T01:43:20.570Z,1.87
2019-01-31T01:46:20.159Z,1.97
2019-01-31T01:49:02.863Z,1.80
2019-01-31T01:52:09.226Z,2.00
2019-01-31T01:58:16.022Z,1.67
2019-01-31T02:01:08.562Z,2.00
2019-01-31T02:04:08.482Z,1.75
2019-01-31T02:07:10.204Z,1.87
2019-01-31T02:10:22.302Z,1.77
2019-01-31T02:13:15.620Z,1.67
2019-01-31T02:16:25.499Z,2.20
2019-01-31T02:19:43.704Z,1.92
2019-01-31T02:22:29.854Z,1.70
2019-01-31T02:25:05.505Z,1.87
2019-01-31T02:28:12.347Z,1.70
2019-01-31T02:31:06.802Z,1.90
2019-01-31T02:33:57.734Z,1.65
2019-01-31T02:36:58.557Z,1.70
2019-01-31T02:39:57.258Z,1.85
2019-01-31T02:42:46.567Z,1.60
2019-01-31T02:45:43.216Z,1.50
2019-01-31T02:48:37.999Z,1.72
2019-01-31T02:51:54.107Z,2.10
2019-01-31T02:54:40.987Z,1.87
2019-01-31T02:58:15.527Z,1.73
2019-01-31T03:01:36.902Z,1.80
2019-01-31T03:04:33.369Z,1.95
2019-01-31T03:07:22.866Z,1.50
2019-01-31T03:10:18.383Z,1.85
2019-01-31T03:13:09.413Z,1.50
2019-01-31T03:16:01.810Z,1.80
2019-01-31T03:19:14.592Z,1.42
2019-01-31T03:22:27.959Z,1.70
2019-01-31T03:25:36.539Z,1.70
2019-01-31T03:28:55.454Z,1.92
2019-01-31T03:31:55.765Z,2.10
2019-01-31T03:34:53.029Z,1.70
2019-01-31T03:37:41.266Z,1.77
2019-01-31T03:40:37.825Z,1.67
2019-01-31T03:43:37.039Z,1.70
2019-01-31T03:48:58.749Z,1.70
2019-01-31T03:51:54.855Z,1.63
2019-01-31T03:55:02.384Z,1.75
2019-01-31T03:57:59.641Z,1.70
2019-01-31T04:01:16.850Z,2.17
2019-01-31T04:03:59.655Z,1.77
2019-01-31T04:06:34.375Z,1.82
2019-01-31T04:09:05.271Z,2.22
2019-01-31T04:11:34.685Z,1.87
2019-01-31T04:14:03.812Z,1.92
2019-01-31T04:16:32.846Z,1.98
2019-01-31T04:19:01.872Z,2.22
2019-01-31T04:21:30.841Z,1.90
2019-01-31T04:24:00.071Z,2.20
2019-01-31T04:26:29.283Z,2.27
2019-01-31T04:28:58.239Z,1.90
2019-01-31T04:31:27.478Z,2.70
2019-01-31T04:33:56.924Z,2.50
2019-01-31T04:36:25.851Z,2.42
2019-01-31T04:38:55.258Z,2.20
2019-01-31T04:41:24.429Z,2.40
2019-01-31T04:43:53.326Z,2.55
2019-01-31T04:46:22.333Z,2.55
2019-01-31T04:48:51.525Z,2.45
2019-01-31T04:51:20.682Z,2.20
2019-01-31T04:53:49.895Z,2.67
2019-01-31T04:56:18.786Z,2.50
2019-01-31T04:58:48.037Z,2.40
2019-01-31T05:01:17.300Z,2.90
2019-01-31T05:03:46.246Z,2.52
2019-01-31T05:06:15.419Z,2.27
2019-01-31T05:08:44.350Z,2.60
2019-01-31T05:11:13.568Z,2.80
2019-01-31T05:13:42.528Z,2.50
2019-01-31T05:16:11.541Z,3.05
2019-01-31T05:18:40.459Z,3.08
2019-01-31T05:21:09.300Z,2.75
2019-01-31T05:23:38.232Z,2.40
2019-01-31T05:26:07.207Z,3.23
2019-01-31T05:28:36.051Z,3.00
2019-01-31T05:31:05.510Z,2.60
2019-01-31T05:33:34.518Z,3.30
2019-01-31T05:36:03.450Z,2.90
2019-01-31T05:38:32.310Z,2.27
2019-01-31T05:41:01.233Z,3.07
2019-01-31T05:43:30.230Z,2.60
2019-01-31T05:45:59.238Z,2.60
2019-01-31T05:48:28.265Z,2.37
2019-01-31T05:50:57.572Z,2.62
2019-01-31T05:53:26.495Z,3.02
2019-01-31T05:55:55.384Z,3.53
2019-01-31T05:58:24.399Z,3.30
2019-01-31T06:00:53.414Z,3.10
2019-01-31T06:03:22.731Z,3.00
2019-01-31T06:05:51.960Z,3.33
2019-01-31T06:08:21.320Z,3.30
2019-01-31T06:10:50.234Z,2.98
2019-01-31T06:13:19.146Z,3.45
2019-01-31T06:15:48.060Z,3.27
2019-01-31T06:18:16.958Z,3.40
2019-01-31T06:20:46.206Z,3.50
2019-01-31T06:23:15.051Z,3.62
2019-01-31T06:25:44.050Z,3.43
2019-01-31T06:28:13.109Z,3.22
2019-01-31T06:30:42.476Z,3.20
2019-01-31T06:33:11.380Z,3.20
2019-01-31T06:35:40.374Z,3.00
2019-01-31T06:38:09.343Z,3.35
2019-01-31T06:40:38.151Z,3.50
2019-01-31T06:43:07.085Z,3.33
2019-01-31T06:45:36.095Z,3.10
2019-01-31T06:48:05.403Z,3.35
2019-01-31T06:50:34.473Z,3.12
2019-01-31T06:53:03.392Z,3.22
2019-01-31T06:55:32.204Z,3.95
2019-01-31T06:58:01.398Z,3.67
2019-01-31T07:00:30.212Z,3.43
2019-01-31T07:02:59.406Z,3.80
2019-01-31T07:05:28.352Z,3.55
2019-01-31T07:07:57.571Z,3.90
2019-01-31T07:10:27.107Z,4.30
2019-01-31T07:12:56.452Z,4.78
2019-01-31T07:15:25.667Z,4.20
2019-01-31T07:17:54.688Z,4.08
2019-01-31T07:20:23.578Z,3.52
2019-01-31T07:22:52.919Z,3.58
2019-01-31T07:25:23.663Z,4.03
2019-01-31T07:27:52.559Z,3.85
2019-01-31T07:30:22.188Z,3.60
2019-01-31T07:32:51.590Z,3.83
2019-01-31T07:35:21.112Z,3.55
2019-01-31T07:37:52.909Z,3.58
2019-01-31T07:40:21.321Z,3.45
2019-01-31T07:42:50.675Z,3.52
2019-01-31T07:45:25.154Z,3.22
2019-01-31T07:47:54.302Z,4.00
2019-01-31T07:50:23.445Z,4.30
2019-01-31T07:52:52.440Z,4.25
2019-01-31T07:55:21.664Z,3.70
2019-01-31T07:57:50.669Z,3.70
2019-01-31T08:00:20.186Z,4.10
2019-01-31T08:02:49.629Z,4.30
2019-01-31T08:05:19.925Z,4.25
2019-01-31T08:07:50.035Z,3.85
2019-01-31T08:10:27.788Z,4.10
2019-01-31T08:12:56.786Z,3.83
2019-01-31T08:15:26.104Z,3.75
2019-01-31T08:17:55.009Z,3.98
2019-01-31T08:20:24.402Z,3.40
2019-01-31T08:22:53.480Z,3.50
2019-01-31T08:25:22.790Z,4.15
2019-01-31T08:27:52.480Z,3.55
2019-01-31T08:30:24.075Z,4.10
2019-01-31T08:32:53.146Z,3.70
2019-01-31T08:35:22.451Z,3.87
2019-01-31T08:37:51.527Z,3.77
2019-01-31T08:40:20.478Z,3.47
2019-01-31T08:42:49.707Z,3.20
2019-01-31T08:45:18.742Z,3.30
2019-01-31T08:47:47.839Z,2.90
2019-01-31T08:50:19.040Z,3.62
2019-01-31T08:52:48.097Z,3.15
2019-01-31T08:55:17.114Z,3.37
2019-01-31T08:57:47.582Z,3.33
2019-01-31T09:00:21.376Z,2.95
2019-01-31T09:02:50.573Z,2.92
2019-01-31T09:05:20.178Z,3.33
2019-01-31T09:07:49.154Z,3.05
2019-01-31T09:10:20.695Z,3.22
2019-01-31T09:12:49.627Z,2.83
2019-01-31T09:15:21.459Z,2.77
2019-01-31T09:17:50.586Z,3.22
2019-01-31T09:20:22.515Z,3.70
2019-01-31T09:23:01.782Z,2.90
2019-01-31T09:25:46.560Z,2.93
2019-01-31T09:29:05.713Z,2.92
2019-01-31T09:32:27.664Z,2.73
2019-01-31T09:35:10.139Z,3.05
2019-01-31T09:38:15.705Z,3.05
2019-01-31T09:41:11.134Z,3.17
2019-01-31T09:44:19.603Z,2.65
2019-01-31T09:47:31.800Z,2.90
2019-01-31T09:50:17.679Z,3.40
2019-01-31T09:53:18.135Z,2.98
2019-01-31T09:56:17.396Z,3.15
2019-01-31T09:59:05.442Z,3.08
2019-01-31T10:02:24.679Z,3.33
2019-01-31T10:05:19.624Z,3.08
2019-01-31T10:08:10.266Z,3.35
2019-01-31T10:11:02.059Z,3.03
2019-01-31T10:14:31.582Z,3.27
2019-01-31T10:17:45.549Z,3.67
2019-01-31T10:20:51.315Z,3.30
2019-01-31T10:23:43.301Z,3.20
2019-01-31T10:26:44.352Z,3.97
2019-01-31T10:29:45.245Z,3.60
2019-01-31T10:32:36.243Z,3.67
2019-01-31T10:35:36.889Z,4.42
2019-01-31T10:38:35.437Z,4.08
2019-01-31T10:42:00.840Z,4.10
2019-01-31T10:44:53.509Z,4.10
2019-01-31T10:47:54.454Z,4.08
2019-01-31T10:50:45.534Z,3.72
2019-01-31T10:53:58.666Z,3.83
2019-01-31T10:57:21.202Z,3.92
2019-01-31T11:00:34.512Z,4.08
2019-01-31T11:03:31.530Z,3.77
2019-01-31T11:06:40.577Z,4.30
2019-01-31T11:10:05.852Z,4.72
2019-01-31T11:13:16.300Z,4.40
2019-01-31T11:16:18.869Z,3.63
2019-01-31T11:19:20.364Z,3.72
2019-01-31T11:22:25.151Z,4.03
2019-01-31T11:25:03.181Z,4.35
2019-01-31T11:27:56.950Z,4.20
2019-01-31T11:30:52.599Z,4.10
2019-01-31T11:33:52.418Z,4.42
2019-01-31T11:36:59.401Z,3.60
2019-01-31T11:40:15.981Z,4.55
2019-01-31T11:43:23.455Z,4.08
2019-01-31T11:46:40.489Z,4.08
2019-01-31T11:49:49.928Z,4.55
2019-01-31T11:52:38.546Z,4.30
2019-01-31T11:55:18.872Z,4.40
2019-01-31T11:58:38.388Z,4.45
2019-01-31T12:01:09.217Z,4.40
2019-01-31T12:03:38.703Z,4.53
2019-01-31T12:06:07.603Z,4.58
2019-01-31T12:08:36.531Z,4.55
2019-01-31T12:11:05.868Z,4.90
2019-01-31T12:13:34.711Z,4.67
2019-01-31T12:16:04.638Z,5.07
2019-01-31T12:18:33.927Z,4.90
2019-01-31T12:21:03.316Z,4.33
2019-01-31T12:23:32.543Z,5.47
2019-01-31T12:26:02.474Z,5.23
2019-01-31T12:28:31.504Z,5.90
2019-01-31T12:31:00.435Z,5.23
2019-01-31T12:33:31.015Z,5.05
2019-01-31T12:36:00.487Z,4.90
2019-01-31T12:38:36.910Z,4.75
2019-01-31T12:41:01.078Z,5.63
2019-01-31T12:43:35.218Z,5.53
2019-01-31T12:46:00.995Z,6.47
2019-01-31T12:48:30.124Z,5.55
2019-01-31T12:50:59.416Z,5.43
2019-01-31T12:53:28.329Z,6.17
2019-01-31T12:55:57.280Z,5.30
2019-01-31T12:58:33.324Z,5.65
2019-01-31T13:00:57.589Z,5.80
2019-01-31T13:03:26.670Z,6.42
2019-01-31T13:05:55.635Z,6.57
2019-01-31T13:08:24.543Z,6.10
2019-01-31T13:10:53.517Z,5.90
2019-01-31T13:13:22.654Z,6.62
2019-01-31T13:15:51.639Z,5.80
2019-01-31T13:18:20.730Z,5.62
2019-01-31T13:20:49.966Z,5.60
2019-01-31T13:23:18.901Z,5.97
2019-01-31T13:25:47.900Z,5.47
2019-01-31T13:28:16.918Z,5.80
2019-01-31T13:30:45.982Z,5.80
2019-01-31T13:33:14.971Z,6.17
2019-01-31T13:35:44.046Z,5.80
2019-01-31T13:38:13.309Z,5.17
2019-01-31T13:40:42.646Z,5.53
2019-01-31T13:43:11.548Z,6.28
2019-01-31T13:45:40.540Z,5.20
2019-01-31T13:48:12.223Z,5.55
2019-01-31T13:50:41.299Z,5.27
2019-01-31T13:53:10.655Z,5.03
2019-01-31T13:55:40.197Z,5.77
2019-01-31T13:58:10.244Z,5.22
2019-01-31T14:00:39.593Z,4.25
2019-01-31T14:03:08.573Z,5.05
2019-01-31T14:05:37.736Z,4.63
2019-01-31T14:08:06.903Z,5.22
2019-01-31T14:10:37.452Z,4.70
2019-01-31T14:13:07.235Z,4.80
2019-01-31T14:15:36.875Z,4.83
2019-01-31T14:18:06.448Z,4.45
2019-01-31T14:20:35.762Z,4.10
2019-01-31T14:23:04.866Z,5.20
2019-01-31T14:25:33.880Z,5.03
2019-01-31T14:28:03.192Z,4.15
2019-01-31T14:30:37.227Z,4.40
2019-01-31T14:33:13.213Z,4.40
2019-01-31T14:35:42.222Z,5.30
2019-01-31T14:38:11.575Z,5.20
2019-01-31T14:40:40.536Z,4.67
2019-01-31T14:43:09.548Z,4.58
2019-01-31T14:45:38.384Z,4.15
2019-01-31T14:48:07.379Z,4.40
2019-01-31T14:50:37.601Z,4.50
2019-01-31T14:53:06.747Z,4.50
2019-01-31T14:55:36.824Z,4.40
2019-01-31T14:58:07.999Z,4.10
2019-01-31T15:00:37.279Z,8.70
2019-01-31T15:03:06.913Z,6.25
2019-01-31T15:05:36.904Z,5.67
2019-01-31T15:08:06.765Z,4.85
2019-01-31T15:10:36.179Z,4.87
2019-01-31T15:13:05.602Z,5.78
2019-01-31T15:15:34.596Z,5.40
2019-01-31T15:18:03.879Z,5.25
2019-01-31T15:20:38.302Z,5.30
2019-01-31T15:23:06.164Z,6.20
2019-01-31T15:25:35.498Z,5.20
2019-01-31T15:28:04.634Z,6.40
2019-01-31T15:30:34.613Z,6.03
2019-01-31T15:33:05.718Z,6.62
2019-01-31T15:35:35.388Z,6.93
2019-01-31T15:38:04.370Z,6.53
2019-01-31T15:40:36.470Z,7.00
2019-01-31T15:43:05.918Z,6.40
2019-01-31T15:45:35.166Z,6.60
2019-01-31T15:48:04.550Z,6.87
2019-01-31T15:50:34.058Z,7.20
2019-01-31T15:53:03.063Z,6.08
2019-01-31T15:55:32.150Z,6.00
2019-01-31T15:58:01.181Z,7.03
2019-01-31T16:00:44.404Z,6.77
2019-01-31T16:03:15.526Z,6.95
2019-01-31T16:05:44.550Z,7.97
2019-01-31T16:08:13.765Z,7.78
2019-01-31T16:10:43.327Z,8.43
2019-01-31T16:13:12.800Z,7.53
2019-01-31T16:15:42.398Z,8.03
2019-01-31T16:18:12.327Z,7.70
2019-01-31T16:20:41.910Z,8.13
2019-01-31T16:23:11.680Z,6.55
2019-01-31T16:25:40.725Z,10.70
2019-01-31T16:28:10.065Z,11.35
2019-01-31T16:30:38.991Z,11.75
2019-01-31T16:33:08.083Z,11.05
2019-01-31T16:35:38.686Z,8.80
2019-01-31T16:38:08.339Z,9.43
2019-01-31T16:40:37.511Z,8.57
2019-01-31T16:43:07.621Z,7.42
2019-01-31T16:45:36.642Z,6.67
2019-01-31T16:48:06.810Z,7.65
2019-01-31T16:50:35.799Z,7.23
2019-01-31T16:53:06.296Z,7.55
2019-01-31T16:55:35.424Z,7.90
2019-01-31T16:58:05.082Z,7.45
2019-01-31T17:00:34.195Z,8.07
2019-01-31T17:03:05.193Z,11.40
2019-01-31T17:05:34.398Z,10.73
2019-01-31T17:08:03.923Z,9.95
2019-01-31T17:10:33.007Z,8.90
2019-01-31T17:13:02.158Z,8.63
2019-01-31T17:15:31.747Z,8.37
2019-01-31T17:18:00.718Z,8.73
2019-01-31T17:20:43.758Z,7.15
2019-01-31T17:23:12.887Z,7.17
2019-01-31T17:25:42.664Z,8.27
2019-01-31T17:28:11.671Z,7.90
2019-01-31T17:30:40.671Z,11.60
2019-01-31T17:33:09.963Z,9.95
2019-01-31T17:35:38.981Z,11.20
2019-01-31T17:38:08.299Z,11.48
2019-01-31T17:40:39.399Z,11.43
2019-01-31T17:43:09.695Z,10.28
2019-01-31T17:45:38.559Z,7.83
2019-01-31T17:48:09.176Z,7.55
2019-01-31T17:50:38.192Z,7.20
2019-01-31T17:53:07.086Z,7.50
2019-01-31T17:55:36.114Z,6.60
2019-01-31T17:58:05.820Z,9.10
2019-01-31T18:00:40.218Z,8.33
2019-01-31T18:03:09.555Z,9.23
2019-01-31T18:05:38.573Z,8.98
2019-01-31T18:08:09.377Z,8.55
2019-01-31T18:10:38.236Z,8.50
2019-01-31T18:13:07.243Z,7.75
2019-01-31T18:15:42.266Z,8.48
2019-01-31T18:18:06.950Z,8.75
2019-01-31T18:20:36.028Z,8.63
2019-01-31T18:23:05.220Z,8.43
2019-01-31T18:25:34.131Z,8.13
2019-01-31T18:28:03.055Z,8.53
2019-01-31T18:30:32.106Z,8.60
2019-01-31T18:33:01.128Z,8.23
2019-01-31T18:35:30.438Z,7.12
2019-01-31T18:37:59.421Z,7.40
2019-01-31T18:40:30.259Z,8.47
2019-01-31T18:42:59.210Z,6.67
2019-01-31T18:45:29.888Z,7.13
2019-01-31T18:47:59.199Z,7.62
2019-01-31T18:50:33.072Z,7.60
2019-01-31T18:53:02.071Z,7.97
2019-01-31T18:55:31.038Z,6.07
2019-01-31T18:58:00.209Z,7.30
2019-01-31T19:00:34.414Z,6.53
2019-01-31T19:03:03.397Z,8.70
2019-01-31T19:05:32.527Z,7.20
2019-01-31T19:08:01.522Z,5.53
2019-01-31T19:10:42.131Z,7.17
2019-01-31T19:13:01.146Z,6.25
2019-01-31T19:15:30.179Z,7.12
2019-01-31T19:18:06.164Z,5.95
2019-01-31T19:20:30.296Z,7.30
2019-01-31T19:23:01.134Z,7.10
2019-01-31T19:25:32.346Z,6.70
2019-01-31T19:28:01.565Z,6.33
2019-01-31T19:30:32.669Z,8.03
2019-01-31T19:33:02.611Z,6.53
2019-01-31T19:35:31.584Z,6.83
2019-01-31T19:38:02.413Z,6.17
2019-01-31T19:40:33.311Z,6.50
2019-01-31T19:43:02.291Z,6.20
2019-01-31T19:45:38.690Z,6.30
2019-01-31T19:48:07.687Z,5.83
2019-01-31T19:50:36.928Z,7.23
2019-01-31T19:53:06.366Z,6.97
2019-01-31T19:55:35.726Z,7.20
2019-01-31T19:58:05.020Z,6.80
2019-01-31T20:00:34.159Z,7.17
2019-01-31T20:03:03.102Z,5.80
2019-01-31T20:05:32.056Z,7.00
2019-01-31T20:08:01.051Z,7.20
2019-01-31T20:10:30.091Z,7.00
2019-01-31T20:12:59.490Z,7.12
2019-01-31T20:15:29.295Z,6.50
2019-01-31T20:17:58.269Z,6.17
2019-01-31T20:20:27.982Z,6.45
2019-01-31T20:22:58.204Z,7.78
2019-01-31T20:25:28.038Z,7.43
2019-01-31T20:27:57.087Z,6.15
2019-01-31T20:30:27.946Z,7.45
2019-01-31T20:32:57.986Z,6.60
2019-01-31T20:35:26.988Z,7.40
2019-01-31T20:37:55.976Z,6.53
2019-01-31T20:40:27.638Z,7.17
2019-01-31T20:42:56.931Z,6.85
2019-01-31T20:45:26.083Z,7.55
2019-01-31T20:47:55.106Z,7.95
2019-01-31T20:50:26.314Z,7.40
2019-01-31T20:52:55.712Z,6.40
2019-01-31T20:55:24.702Z,8.28
2019-01-31T20:57:53.727Z,8.03
2019-01-31T21:00:30.602Z,7.50
2019-01-31T21:02:59.624Z,8.63
2019-01-31T21:05:28.768Z,6.67
2019-01-31T21:07:57.788Z,6.90
2019-01-31T21:10:26.901Z,6.70
2019-01-31T21:12:55.928Z,6.55
2019-01-31T21:15:25.113Z,7.22
2019-01-31T21:17:54.196Z,6.30
2019-01-31T21:20:26.039Z,5.80
2019-01-31T21:22:54.330Z,6.70
2019-01-31T21:25:23.363Z,6.12
2019-01-31T21:27:53.467Z,5.80
2019-01-31T21:30:33.971Z,6.12
2019-01-31T21:33:03.007Z,6.17
2019-01-31T21:35:32.139Z,6.70
2019-01-31T21:38:01.525Z,6.53
2019-01-31T21:40:34.890Z,6.20
2019-01-31T21:43:04.743Z,5.55
2019-01-31T21:45:33.621Z,5.57
2019-01-31T21:48:02.932Z,5.50
2019-01-31T21:50:32.520Z,5.57
2019-01-31T21:53:01.503Z,5.15
2019-01-31T21:55:30.699Z,5.30
2019-01-31T21:57:59.653Z,6.05
2019-01-31T22:00:30.871Z,4.87
2019-01-31T22:03:00.150Z,5.33
2019-01-31T22:05:29.259Z,4.80
2019-01-31T22:07:58.288Z,5.90
2019-01-31T22:10:27.319Z,5.08
2019-01-31T22:12:56.622Z,4.72
2019-01-31T22:15:27.555Z,3.95
2019-01-31T22:17:58.257Z,5.17
2019-01-31T22:20:27.392Z,4.27
2019-01-31T22:22:56.370Z,5.40
2019-01-31T22:25:26.219Z,6.50
2019-01-31T22:27:55.315Z,5.25
2019-01-31T22:30:32.120Z,5.47
2019-01-31T22:33:01.228Z,6.30
2019-01-31T22:35:30.418Z,5.53
2019-01-31T22:37:59.445Z,4.60
2019-01-31T22:40:28.484Z,4.70
2019-01-31T22:42:57.477Z,5.00
2019-01-31T22:45:26.869Z,4.67
2019-01-31T22:47:55.875Z,4.95
2019-01-31T22:50:24.997Z,4.22
2019-01-31T22:52:54.039Z,4.70
2019-01-31T22:55:24.341Z,4.80
2019-01-31T22:57:53.479Z,4.33
2019-01-31T23:01:03.275Z,4.72
2019-01-31T23:03:32.326Z,4.60
2019-01-31T23:06:01.353Z,3.90
2019-01-31T23:08:30.411Z,4.55
2019-01-31T23:10:59.316Z,4.03
2019-01-31T23:13:28.162Z,4.40
2019-01-31T23:15:57.497Z,4.07
2019-01-31T23:18:26.562Z,4.85
2019-01-31T23:20:55.585Z,3.60
2019-01-31T23:23:24.529Z,4.25
2019-01-31T23:25:53.739Z,3.60
2019-01-31T23:28:22.959Z,3.92
2019-01-31T23:30:52.175Z,3.57
2019-01-31T23:33:21.090Z,4.47
2019-01-31T23:35:50.332Z,4.23
2019-01-31T23:38:19.283Z,3.70
2019-01-31T23:40:48.243Z,4.22
2019-01-31T23:43:17.304Z,4.03
2019-01-31T23:45:46.213Z,3.27
2019-01-31T23:48:15.363Z,3.72
2019-01-31T23:50:44.604Z,3.58
2019-01-31T23:53:13.634Z,3.80
2019-01-31T23:55:42.994Z,3.35
2019-01-31T23:58:12.057Z,4.42
